createdAt,value
2017-10-10T00:00:03.959Z,99.90
2017-10-10T00:02:32.061Z,99.90
2017-10-10T00:05:00.192Z,99.90
2017-10-10T00:07:28.296Z,99.90
2017-10-10T00:09:56.417Z,99.90
2017-10-10T00:12:24.532Z,99.90
2017-10-10T00:14:52.640Z,99.90
2017-10-10T00:17:20.744Z,99.90
2017-10-10T00:19:49.881Z,99.90
2017-10-10T00:22:18.773Z,99.90
2017-10-10T00:24:46.863Z,99.90
2017-10-10T00:27:14.939Z,99.90
2017-10-10T00:29:44.309Z,99.90
2017-10-10T00:32:13.859Z,99.90
2017-10-10T00:34:41.968Z,99.90
2017-10-10T00:37:10.096Z,99.90
2017-10-10T00:39:38.184Z,99.90
2017-10-10T00:42:06.276Z,99.90
2017-10-10T00:44:34.409Z,99.90
2017-10-10T00:47:02.497Z,99.90
2017-10-10T00:49:30.584Z,99.90
2017-10-10T00:51:58.699Z,99.90
2017-10-10T00:54:26.824Z,99.90
2017-10-10T00:56:54.938Z,99.90
2017-10-10T00:59:23.052Z,99.90
2017-10-10T01:01:51.143Z,99.90
2017-10-10T01:04:19.240Z,99.90
2017-10-10T01:06:47.368Z,99.90
2017-10-10T01:09:15.476Z,99.90
2017-10-10T01:11:43.604Z,99.90
2017-10-10T01:14:12.231Z,99.90
2017-10-10T01:16:40.678Z,99.90
2017-10-10T01:19:09.687Z,99.90
2017-10-10T01:21:38.192Z,99.90
2017-10-10T01:24:06.312Z,99.90
2017-10-10T01:26:34.423Z,99.90
2017-10-10T01:29:02.533Z,99.90
2017-10-10T01:31:30.649Z,99.90
2017-10-10T01:33:58.763Z,99.90
2017-10-10T01:36:26.884Z,99.90
2017-10-10T01:38:54.967Z,99.90
2017-10-10T01:41:23.089Z,99.90
2017-10-10T01:43:51.181Z,99.90
2017-10-10T01:46:19.315Z,99.90
2017-10-10T01:48:48.203Z,99.90
2017-10-10T01:51:16.284Z,99.90
2017-10-10T01:53:44.436Z,99.90
2017-10-10T01:56:12.537Z,99.90
2017-10-10T01:58:40.627Z,99.90
2017-10-10T02:01:08.752Z,99.90
2017-10-10T02:03:36.848Z,99.90
2017-10-10T02:06:04.948Z,99.90
2017-10-10T02:08:33.072Z,99.90
2017-10-10T02:11:01.774Z,99.90
2017-10-10T02:13:29.887Z,99.90
2017-10-10T02:15:59.048Z,99.90
2017-10-10T02:18:27.164Z,99.90
2017-10-10T02:20:55.267Z,99.90
2017-10-10T02:23:23.359Z,99.90
2017-10-10T02:25:51.506Z,99.90
2017-10-10T02:28:19.589Z,99.90
2017-10-10T02:30:47.729Z,99.90
2017-10-10T02:33:15.804Z,99.90
2017-10-10T02:35:43.896Z,99.90
2017-10-10T02:38:12.015Z,99.90
2017-10-10T02:40:40.868Z,99.90
2017-10-10T02:43:08.974Z,99.90
2017-10-10T02:45:37.072Z,99.90
2017-10-10T02:48:05.183Z,99.90
2017-10-10T02:50:33.609Z,99.90
2017-10-10T02:53:01.723Z,99.90
2017-10-10T02:55:29.831Z,99.90
2017-10-10T02:57:57.918Z,99.90
2017-10-10T03:00:26.051Z,99.90
2017-10-10T03:02:54.163Z,99.90
2017-10-10T03:05:23.014Z,99.90
2017-10-10T03:07:51.139Z,99.90
2017-10-10T03:10:20.007Z,99.90
2017-10-10T03:12:48.115Z,99.90
2017-10-10T03:15:16.253Z,99.90
2017-10-10T03:17:45.361Z,99.90
2017-10-10T03:20:13.702Z,99.90
2017-10-10T03:22:41.839Z,99.90
2017-10-10T03:25:10.700Z,99.90
2017-10-10T03:27:39.654Z,99.90
2017-10-10T03:30:09.007Z,99.90
2017-10-10T03:32:37.881Z,99.90
2017-10-10T03:35:05.964Z,99.90
2017-10-10T03:37:34.101Z,99.90
2017-10-10T03:40:02.196Z,99.90
2017-10-10T03:42:30.276Z,99.90
2017-10-10T03:44:58.905Z,99.90
2017-10-10T03:47:27.039Z,99.90
2017-10-10T03:49:55.158Z,99.90
2017-10-10T03:52:23.280Z,99.90
2017-10-10T03:54:51.380Z,99.90
2017-10-10T03:57:19.491Z,99.90
2017-10-10T03:59:47.577Z,99.90
2017-10-10T04:02:15.654Z,99.90
2017-10-10T04:04:43.761Z,99.90
2017-10-10T04:07:11.868Z,99.90
2017-10-10T04:09:39.975Z,99.90
2017-10-10T04:12:08.564Z,99.90
2017-10-10T04:14:36.711Z,99.90
2017-10-10T04:17:05.764Z,99.90
2017-10-10T04:19:33.860Z,99.90
2017-10-10T04:22:02.031Z,99.90
2017-10-10T04:24:30.143Z,99.90
2017-10-10T04:26:58.252Z,99.90
2017-10-10T04:29:26.366Z,99.90
2017-10-10T04:31:54.496Z,99.90
2017-10-10T04:34:22.571Z,99.90
2017-10-10T04:36:50.659Z,99.90
2017-10-10T04:39:18.775Z,99.90
2017-10-10T04:41:46.852Z,99.90
2017-10-10T04:44:14.971Z,99.90
2017-10-10T04:46:43.177Z,99.90
2017-10-10T04:49:11.274Z,99.90
2017-10-10T04:51:40.164Z,99.90
2017-10-10T04:54:08.258Z,99.90
2017-10-10T04:56:37.158Z,99.90
2017-10-10T04:59:05.239Z,99.90
2017-10-10T05:01:33.365Z,99.90
2017-10-10T05:04:01.447Z,99.90
2017-10-10T05:06:29.553Z,99.90
2017-10-10T05:08:57.673Z,99.90
2017-10-10T05:11:25.760Z,99.90
2017-10-10T05:13:53.872Z,99.90
2017-10-10T05:16:21.972Z,99.90
2017-10-10T05:18:50.131Z,99.90
2017-10-10T05:21:18.249Z,99.90
2017-10-10T05:23:46.358Z,99.90
2017-10-10T05:26:14.611Z,99.90
2017-10-10T05:28:43.552Z,99.90
2017-10-10T05:31:11.648Z,99.90
2017-10-10T05:33:39.760Z,99.90
2017-10-10T05:36:07.841Z,99.90
2017-10-10T05:38:36.059Z,99.90
2017-10-10T05:41:04.145Z,99.90
2017-10-10T05:43:32.256Z,99.90
2017-10-10T05:46:00.368Z,99.90
2017-10-10T05:48:28.856Z,99.90
2017-10-10T05:50:56.958Z,99.90
2017-10-10T05:53:25.815Z,99.90
2017-10-10T05:55:53.920Z,99.90
2017-10-10T05:58:22.020Z,99.90
2017-10-10T06:00:50.130Z,99.90
2017-10-10T06:03:18.220Z,99.90
2017-10-10T06:05:46.303Z,99.90
2017-10-10T06:08:15.108Z,99.90
2017-10-10T06:10:44.023Z,99.90
2017-10-10T06:13:12.132Z,99.90
2017-10-10T06:15:40.271Z,99.90
2017-10-10T06:18:08.495Z,99.90
2017-10-10T06:20:36.605Z,99.90
2017-10-10T06:23:05.530Z,99.90
2017-10-10T06:25:33.647Z,99.90
2017-10-10T06:28:02.461Z,99.90
2017-10-10T06:30:31.598Z,99.90
2017-10-10T06:33:00.036Z,99.90
2017-10-10T06:35:28.137Z,99.90
2017-10-10T06:44:42.450Z,99.90
2017-10-10T06:47:10.537Z,99.90
2017-10-10T06:49:38.647Z,99.90
2017-10-10T06:52:06.763Z,99.90
2017-10-10T06:54:34.921Z,99.90
2017-10-10T06:57:03.064Z,99.90
2017-10-10T06:59:31.156Z,99.90
2017-10-10T07:02:00.045Z,99.90
2017-10-10T07:04:28.166Z,99.90
2017-10-10T07:06:56.271Z,99.90
2017-10-10T07:09:25.134Z,99.90
2017-10-10T07:11:53.258Z,99.90
2017-10-10T07:14:21.354Z,99.90
2017-10-10T07:16:49.454Z,99.90
2017-10-10T07:19:17.547Z,99.90
2017-10-10T07:21:46.639Z,99.90
2017-10-10T07:24:15.529Z,99.90
2017-10-10T07:26:44.392Z,99.90
2017-10-10T07:29:12.712Z,99.90
2017-10-10T07:31:41.151Z,99.90
2017-10-10T07:34:09.252Z,99.90
2017-10-10T07:36:38.148Z,99.90
2017-10-10T07:39:07.088Z,99.90
2017-10-10T07:41:35.182Z,99.90
2017-10-10T07:44:03.357Z,99.90
2017-10-10T07:46:32.416Z,99.90
2017-10-10T07:49:00.606Z,99.90
2017-10-10T07:51:29.929Z,99.90
2017-10-10T07:53:58.932Z,99.90
2017-10-10T07:56:27.036Z,99.90
2017-10-10T07:58:55.884Z,99.90
2017-10-10T08:01:24.049Z,99.90
2017-10-10T08:03:53.068Z,99.90
2017-10-10T08:06:21.501Z,99.90
2017-10-10T08:08:49.792Z,99.90
2017-10-10T08:11:18.895Z,99.90
2017-10-10T08:13:47.008Z,99.90
2017-10-10T08:16:15.107Z,99.90
2017-10-10T08:18:43.293Z,99.90
2017-10-10T08:21:11.413Z,99.90
2017-10-10T08:23:39.482Z,99.90
2017-10-10T08:26:07.626Z,99.90
2017-10-10T08:28:35.720Z,99.90
2017-10-10T08:31:03.824Z,99.90
2017-10-10T08:33:32.737Z,99.90
2017-10-10T08:36:01.879Z,99.90
2017-10-10T08:38:30.018Z,99.90
2017-10-10T08:40:58.803Z,99.90
2017-10-10T08:43:26.950Z,99.90
2017-10-10T08:45:55.054Z,99.90
2017-10-10T08:48:24.074Z,99.90
2017-10-10T08:50:52.186Z,99.90
2017-10-10T08:53:21.074Z,99.90
2017-10-10T08:55:49.201Z,99.90
2017-10-10T08:58:17.320Z,99.90
2017-10-10T09:00:46.188Z,99.90
2017-10-10T09:03:14.720Z,99.90
2017-10-10T09:05:43.805Z,99.90
2017-10-10T09:08:12.455Z,99.90
2017-10-10T09:10:40.570Z,99.40
2017-10-10T09:13:08.669Z,99.30
2017-10-10T09:15:37.232Z,99.50
2017-10-10T09:18:05.354Z,99.60
2017-10-10T09:20:33.476Z,99.40
2017-10-10T09:23:01.633Z,99.30
2017-10-10T09:25:30.487Z,99.30
2017-10-10T09:27:58.571Z,99.30
2017-10-10T09:30:27.012Z,99.30
2017-10-10T09:32:55.120Z,99.40
2017-10-10T09:35:23.225Z,99.30
2017-10-10T09:37:52.535Z,99.30
2017-10-10T09:40:20.729Z,99.10
2017-10-10T09:42:48.896Z,99.30
2017-10-10T09:45:17.006Z,98.90
2017-10-10T09:47:45.116Z,99.10
2017-10-10T09:50:13.204Z,99.00
2017-10-10T09:52:41.351Z,98.70
2017-10-10T09:55:09.448Z,98.30
2017-10-10T09:57:37.541Z,98.10
2017-10-10T10:00:05.652Z,98.30
2017-10-10T10:02:35.514Z,98.10
2017-10-10T10:05:03.669Z,98.10
2017-10-10T10:07:31.759Z,98.10
2017-10-10T10:09:59.908Z,97.60
2017-10-10T10:12:28.000Z,97.70
2017-10-10T10:14:56.075Z,96.90
2017-10-10T10:17:24.225Z,96.70
2017-10-10T10:19:52.331Z,96.50
2017-10-10T10:22:20.444Z,96.40
2017-10-10T10:24:48.539Z,96.80
2017-10-10T10:27:16.659Z,95.30
2017-10-10T10:29:44.739Z,96.40
2017-10-10T10:32:12.879Z,96.00
2017-10-10T10:34:41.007Z,95.60
2017-10-10T10:37:09.124Z,95.60
2017-10-10T10:39:37.235Z,95.50
2017-10-10T10:42:05.339Z,95.30
2017-10-10T10:44:34.226Z,94.60
2017-10-10T10:47:03.225Z,95.80
2017-10-10T10:49:31.311Z,95.80
2017-10-10T10:51:59.417Z,96.00
2017-10-10T10:54:27.946Z,96.10
2017-10-10T10:56:56.808Z,96.70
2017-10-10T10:59:24.947Z,96.60
2017-10-10T11:01:53.039Z,96.50
2017-10-10T11:04:21.156Z,95.90
2017-10-10T11:06:49.357Z,95.60
2017-10-10T11:09:17.464Z,96.10
2017-10-10T11:11:45.580Z,96.20
2017-10-10T11:14:14.433Z,96.60
2017-10-10T11:16:42.548Z,96.60
2017-10-10T11:19:10.659Z,96.30
2017-10-10T11:21:38.753Z,96.50
2017-10-10T11:24:07.880Z,96.50
2017-10-10T11:26:36.001Z,96.10
2017-10-10T11:29:04.141Z,96.00
2017-10-10T11:31:32.257Z,96.00
2017-10-10T11:34:00.368Z,95.90
2017-10-10T11:36:29.252Z,96.20
2017-10-10T11:38:57.353Z,96.10
2017-10-10T11:41:25.447Z,96.20
2017-10-10T11:43:53.540Z,95.60
2017-10-10T11:46:22.730Z,95.80
2017-10-10T11:48:50.841Z,96.10
2017-10-10T11:51:18.923Z,96.20
2017-10-10T11:53:47.030Z,95.40
2017-10-10T11:56:15.139Z,95.20
2017-10-10T11:58:43.237Z,94.90
2017-10-10T12:01:11.620Z,94.40
2017-10-10T12:03:39.713Z,94.40
2017-10-10T12:06:07.798Z,94.00
2017-10-10T12:08:35.977Z,93.90
2017-10-10T12:11:04.086Z,94.00
2017-10-10T12:13:32.197Z,94.00
2017-10-10T12:16:01.077Z,93.20
2017-10-10T12:18:29.196Z,93.20
2017-10-10T12:20:57.296Z,93.40
2017-10-10T12:23:25.392Z,93.10
2017-10-10T12:25:54.262Z,93.50
2017-10-10T12:28:22.381Z,93.40
2017-10-10T12:30:50.476Z,92.70
2017-10-10T12:33:18.585Z,92.70
2017-10-10T12:35:46.691Z,93.00
2017-10-10T12:38:14.776Z,92.40
2017-10-10T12:40:43.964Z,93.10
2017-10-10T12:43:12.056Z,92.60
2017-10-10T12:45:40.160Z,93.30
2017-10-10T12:48:08.422Z,91.60
2017-10-10T12:50:36.509Z,92.30
2017-10-10T12:53:04.700Z,92.90
2017-10-10T12:55:32.830Z,93.00
2017-10-10T12:58:00.936Z,92.70
2017-10-10T13:00:29.026Z,92.70
2017-10-10T13:02:57.907Z,92.70
2017-10-10T13:05:26.016Z,92.70
2017-10-10T13:07:55.104Z,92.70
2017-10-10T13:10:23.212Z,92.90
2017-10-10T13:12:51.305Z,93.30
2017-10-10T13:15:19.428Z,93.10
2017-10-10T13:17:47.624Z,93.20
2017-10-10T13:20:15.716Z,93.10
2017-10-10T13:22:43.833Z,93.60
2017-10-10T13:25:12.849Z,93.20
2017-10-10T13:27:40.973Z,93.20
2017-10-10T13:30:09.072Z,93.80
2017-10-10T13:32:37.171Z,94.20
2017-10-10T13:35:05.297Z,94.90
2017-10-10T13:37:33.400Z,94.80
2017-10-10T13:40:01.516Z,94.50
2017-10-10T13:42:29.593Z,94.70
2017-10-10T13:44:57.753Z,94.40
2017-10-10T13:47:26.045Z,94.70
2017-10-10T13:49:54.180Z,94.70
2017-10-10T13:52:22.572Z,95.50
2017-10-10T13:54:51.152Z,95.40
2017-10-10T13:57:19.282Z,95.20
2017-10-10T13:59:48.564Z,95.40
2017-10-10T14:02:16.653Z,95.40
2017-10-10T14:04:45.556Z,95.20
2017-10-10T14:07:14.417Z,95.60
2017-10-10T14:09:42.506Z,95.60
2017-10-10T14:12:11.393Z,96.70
2017-10-10T14:14:39.502Z,96.30
2017-10-10T14:17:07.704Z,95.80
2017-10-10T14:19:35.828Z,95.80
2017-10-10T14:22:04.146Z,95.80
2017-10-10T14:24:32.237Z,95.90
2017-10-10T14:27:00.360Z,95.70
2017-10-10T14:29:28.452Z,95.90
2017-10-10T14:31:56.555Z,95.70
2017-10-10T14:34:24.663Z,95.80
2017-10-10T14:36:52.753Z,95.80
2017-10-10T14:39:20.885Z,96.00
2017-10-10T14:41:48.969Z,95.90
2017-10-10T14:44:17.079Z,96.10
2017-10-10T14:46:45.186Z,96.00
2017-10-10T14:49:13.289Z,96.10
2017-10-10T14:51:41.398Z,96.20
2017-10-10T14:54:09.493Z,95.60
2017-10-10T14:56:37.730Z,95.50
2017-10-10T14:59:05.841Z,95.80
2017-10-10T15:01:33.988Z,95.80
2017-10-10T15:04:02.220Z,95.70
2017-10-10T15:06:30.335Z,95.20
2017-10-10T15:08:58.455Z,95.20
2017-10-10T15:11:26.547Z,95.60
2017-10-10T15:13:55.505Z,95.20
2017-10-10T15:16:23.727Z,95.20
2017-10-10T15:18:52.589Z,94.80
2017-10-10T15:21:20.723Z,94.80
2017-10-10T15:23:49.136Z,95.10
2017-10-10T15:26:17.233Z,94.90
2017-10-10T15:28:46.116Z,94.60
2017-10-10T15:31:14.208Z,94.50
2017-10-10T15:33:42.475Z,94.90
2017-10-10T15:36:10.584Z,95.00
2017-10-10T15:38:38.681Z,94.70
2017-10-10T15:41:07.707Z,94.90
2017-10-10T15:43:35.785Z,95.00
2017-10-10T15:46:03.902Z,94.30
2017-10-10T15:48:32.020Z,94.70
2017-10-10T15:51:00.170Z,95.10
2017-10-10T15:53:28.263Z,95.50
2017-10-10T15:55:56.355Z,95.60
2017-10-10T15:58:24.510Z,95.70
2017-10-10T16:07:37.423Z,95.80
2017-10-10T16:10:05.565Z,95.80
2017-10-10T16:12:33.673Z,95.70
2017-10-10T16:15:02.865Z,95.10
2017-10-10T16:17:30.968Z,95.30
2017-10-10T16:19:59.067Z,95.40
2017-10-10T16:22:27.194Z,95.70
2017-10-10T16:24:55.444Z,95.70
2017-10-10T16:27:24.492Z,95.80
2017-10-10T16:29:52.833Z,95.80
2017-10-10T16:32:21.108Z,95.90
2017-10-10T16:34:49.449Z,96.00
2017-10-10T16:37:17.653Z,96.20
2017-10-10T16:39:46.580Z,96.20
2017-10-10T16:42:14.674Z,95.90
2017-10-10T16:44:42.787Z,96.50
2017-10-10T16:47:11.824Z,96.20
2017-10-10T16:49:39.961Z,96.40
2017-10-10T16:52:08.064Z,96.30
2017-10-10T16:54:36.165Z,96.70
2017-10-10T16:57:04.286Z,97.00
2017-10-10T16:59:32.398Z,96.90
2017-10-10T17:02:00.491Z,97.10
2017-10-10T17:04:28.599Z,96.80
2017-10-10T17:06:56.733Z,96.70
2017-10-10T17:09:24.856Z,96.50
2017-10-10T17:11:52.960Z,96.60
2017-10-10T17:14:21.084Z,96.60
2017-10-10T17:16:49.175Z,96.80
2017-10-10T17:19:17.296Z,96.80
2017-10-10T17:21:45.498Z,96.50
2017-10-10T17:24:14.344Z,96.40
2017-10-10T17:26:42.528Z,96.40
2017-10-10T17:29:10.625Z,96.50
2017-10-10T17:31:39.504Z,96.50
2017-10-10T17:34:07.609Z,96.50
2017-10-10T17:36:35.703Z,96.30
2017-10-10T17:39:03.833Z,96.50
2017-10-10T17:41:31.975Z,96.60
2017-10-10T17:44:00.106Z,96.80
2017-10-10T17:46:28.196Z,96.30
2017-10-10T17:48:56.294Z,96.30
2017-10-10T17:51:24.408Z,96.60
2017-10-10T17:53:52.484Z,96.70
2017-10-10T17:56:20.618Z,96.70
2017-10-10T17:58:48.740Z,97.00
2017-10-10T18:01:16.857Z,96.80
2017-10-10T18:03:45.206Z,96.90
2017-10-10T18:06:13.292Z,97.10
2017-10-10T18:08:41.412Z,96.80
2017-10-10T18:11:10.380Z,96.80
2017-10-10T18:13:39.514Z,96.90
2017-10-10T18:16:07.604Z,96.70
2017-10-10T18:18:35.711Z,97.00
2017-10-10T18:21:03.816Z,96.80
2017-10-10T18:23:32.699Z,96.90
2017-10-10T18:26:00.816Z,96.80
2017-10-10T18:28:28.911Z,96.80
2017-10-10T18:30:57.288Z,96.70
2017-10-10T18:33:25.426Z,96.70
2017-10-10T18:35:53.511Z,97.00
2017-10-10T18:38:21.637Z,96.70
2017-10-10T18:40:50.495Z,96.80
2017-10-10T18:43:19.537Z,96.80
2017-10-10T18:45:47.619Z,97.00
2017-10-10T18:48:15.727Z,96.90
2017-10-10T18:50:43.855Z,96.90
2017-10-10T18:53:11.942Z,96.70
2017-10-10T18:55:40.063Z,96.70
2017-10-10T18:58:08.172Z,96.80
2017-10-10T19:00:36.295Z,96.80
2017-10-10T19:03:05.322Z,96.90
2017-10-10T19:05:34.207Z,96.50
2017-10-10T19:08:02.287Z,96.50
2017-10-10T19:10:31.168Z,96.60
2017-10-10T19:12:59.313Z,96.60
2017-10-10T19:15:28.310Z,96.60
2017-10-10T19:17:56.500Z,96.60
2017-10-10T19:20:24.598Z,96.60
2017-10-10T19:22:53.723Z,96.80
2017-10-10T19:25:22.740Z,96.80
2017-10-10T19:27:50.856Z,96.70
2017-10-10T19:30:18.968Z,96.90
2017-10-10T19:32:47.054Z,96.60
2017-10-10T19:35:15.163Z,96.60
2017-10-10T19:37:44.978Z,96.30
2017-10-10T19:40:14.937Z,96.20
2017-10-10T19:42:44.286Z,96.20
2017-10-10T19:45:12.380Z,96.20
2017-10-10T19:47:41.283Z,96.60
2017-10-10T19:50:09.395Z,96.60
2017-10-10T19:52:37.672Z,96.50
2017-10-10T19:55:05.786Z,96.30
2017-10-10T19:57:34.147Z,96.60
2017-10-10T20:00:02.297Z,96.50
2017-10-10T20:02:30.431Z,96.60
2017-10-10T20:04:59.452Z,96.70
2017-10-10T20:07:27.595Z,96.70
2017-10-10T20:09:55.731Z,96.70
2017-10-10T20:12:23.814Z,96.60
2017-10-10T20:14:52.774Z,96.80
2017-10-10T20:17:20.864Z,96.40
2017-10-10T20:19:50.043Z,96.10
2017-10-10T20:22:18.211Z,96.40
2017-10-10T20:24:47.269Z,96.20
2017-10-10T20:27:15.534Z,96.30
2017-10-10T20:29:43.649Z,96.50
2017-10-10T20:32:11.872Z,96.40
2017-10-10T20:34:39.962Z,96.40
2017-10-10T20:37:08.822Z,96.10
2017-10-10T20:39:36.967Z,96.10
2017-10-10T20:42:05.395Z,96.40
2017-10-10T20:44:34.312Z,96.60
2017-10-10T20:47:02.409Z,96.60
2017-10-10T20:49:30.556Z,96.20
2017-10-10T20:51:58.668Z,96.30
2017-10-10T20:54:26.818Z,96.10
2017-10-10T20:56:54.911Z,96.20
2017-10-10T20:59:23.023Z,96.10
2017-10-10T21:01:51.914Z,96.20
2017-10-10T21:04:20.816Z,96.70
2017-10-10T21:06:49.699Z,96.40
2017-10-10T21:09:18.572Z,96.40
2017-10-10T21:11:46.691Z,96.40
2017-10-10T21:14:15.142Z,96.40
2017-10-10T21:16:44.042Z,96.50
2017-10-10T21:19:12.924Z,96.70
2017-10-10T21:21:41.797Z,96.40
2017-10-10T21:24:09.920Z,96.40
2017-10-10T21:26:38.299Z,96.40
2017-10-10T21:29:06.409Z,96.40
2017-10-10T21:31:34.517Z,96.60
2017-10-10T21:34:03.382Z,96.30
2017-10-10T21:36:31.626Z,96.30
2017-10-10T21:38:59.737Z,96.30
2017-10-10T21:41:27.837Z,96.30
2017-10-10T21:43:55.935Z,96.50
2017-10-10T21:46:24.011Z,96.50
2017-10-10T21:48:52.184Z,96.60
2017-10-10T21:51:20.310Z,96.70
2017-10-10T21:53:49.184Z,96.70
2017-10-10T21:56:17.300Z,96.50
2017-10-10T21:58:45.483Z,96.60
2017-10-10T22:01:13.948Z,96.40
2017-10-10T22:03:42.039Z,96.80
2017-10-10T22:06:10.123Z,96.80
2017-10-10T22:08:38.223Z,96.50
2017-10-10T22:11:06.317Z,96.40
2017-10-10T22:13:34.432Z,96.50
2017-10-10T22:16:02.558Z,96.40
2017-10-10T22:18:31.048Z,96.50
2017-10-10T22:20:59.237Z,96.60
2017-10-10T22:23:27.343Z,96.40
2017-10-10T22:25:55.559Z,96.40
2017-10-10T22:28:23.663Z,96.40
2017-10-10T22:30:51.768Z,96.40
2017-10-10T22:33:19.882Z,96.40
2017-10-10T22:35:47.980Z,96.40
2017-10-10T22:38:16.876Z,96.60
2017-10-10T22:40:44.973Z,96.20
2017-10-10T22:43:13.071Z,96.20
2017-10-10T22:45:41.361Z,96.20
2017-10-10T22:48:09.447Z,96.40
2017-10-10T22:50:37.634Z,96.30
2017-10-10T22:53:05.743Z,96.30
2017-10-10T22:55:33.832Z,96.20
2017-10-10T22:58:01.937Z,96.30
2017-10-10T23:00:30.036Z,96.20
2017-10-10T23:02:58.147Z,96.10
2017-10-10T23:05:26.346Z,96.30
2017-10-10T23:07:54.437Z,96.10
2017-10-10T23:10:22.563Z,96.10
2017-10-10T23:12:50.663Z,96.40
2017-10-10T23:15:19.160Z,96.40
2017-10-10T23:17:48.956Z,96.60
2017-10-10T23:20:17.824Z,96.80
2017-10-10T23:22:46.204Z,96.50
2017-10-10T23:25:14.293Z,96.40
2017-10-10T23:27:42.441Z,96.40
2017-10-10T23:30:10.544Z,96.60
2017-10-10T23:32:38.645Z,96.60
2017-10-10T23:35:06.756Z,96.50
2017-10-10T23:37:35.116Z,96.50
2017-10-10T23:40:04.196Z,96.40
2017-10-10T23:42:32.293Z,96.30
2017-10-10T23:45:00.396Z,96.50
2017-10-10T23:47:28.491Z,96.50
2017-10-10T23:49:57.349Z,96.40
2017-10-10T23:52:25.580Z,96.70
2017-10-10T23:54:53.670Z,96.40
2017-10-10T23:57:21.777Z,96.50
2017-10-10T23:59:49.861Z,96.60
